createdAt,value
2019-03-15T00:00:32.771Z,95.14
2019-03-15T00:03:04.710Z,95.06
2019-03-15T00:05:36.680Z,94.75
2019-03-15T00:08:12.649Z,94.19
2019-03-15T00:10:52.227Z,93.40
2019-03-15T00:13:25.756Z,92.61
2019-03-15T00:16:00.146Z,92.42
2019-03-15T00:18:37.358Z,92.15
2019-03-15T00:21:20.692Z,92.16
2019-03-15T00:24:08.530Z,90.81
2019-03-15T00:26:47.082Z,89.27
2019-03-15T00:29:29.109Z,88.77
2019-03-15T00:32:02.639Z,88.30
2019-03-15T00:34:34.717Z,87.41
2019-03-15T00:37:13.801Z,87.64
2019-03-15T00:39:51.386Z,86.78
2019-03-15T00:42:26.314Z,86.93
2019-03-15T00:45:04.617Z,86.86
2019-03-15T00:47:40.120Z,86.71
2019-03-15T00:50:17.813Z,86.29
2019-03-15T00:52:52.467Z,86.87
2019-03-15T00:55:26.787Z,86.50
2019-03-15T00:58:04.674Z,86.52
2019-03-15T01:00:38.360Z,86.86
2019-03-15T01:03:15.047Z,87.81
2019-03-15T01:05:52.783Z,88.69
2019-03-15T01:08:32.187Z,88.83
2019-03-15T01:11:08.639Z,87.46
2019-03-15T01:13:41.558Z,87.77
2019-03-15T01:16:15.226Z,88.20
2019-03-15T01:18:51.565Z,88.73
2019-03-15T01:21:26.075Z,90.29
2019-03-15T01:23:57.912Z,91.66
2019-03-15T01:26:31.406Z,92.54
2019-03-15T01:29:09.013Z,93.62
2019-03-15T01:31:42.507Z,94.94
2019-03-15T01:34:25.870Z,96.00
2019-03-15T01:36:59.280Z,96.21
2019-03-15T01:39:36.199Z,97.08
2019-03-15T01:42:09.684Z,95.90
2019-03-15T01:44:41.487Z,96.16
2019-03-15T01:47:13.325Z,95.89
2019-03-15T01:49:45.417Z,94.79
2019-03-15T01:52:17.416Z,94.30
2019-03-15T01:54:49.247Z,95.07
2019-03-15T01:57:21.094Z,94.69
2019-03-15T01:59:52.952Z,92.72
2019-03-15T02:02:24.822Z,91.64
2019-03-15T02:04:57.625Z,91.71
2019-03-15T02:07:29.534Z,90.95
2019-03-15T02:10:01.416Z,90.23
2019-03-15T02:12:33.421Z,89.08
2019-03-15T02:15:05.920Z,88.50
2019-03-15T02:17:37.807Z,88.91
2019-03-15T02:20:09.672Z,89.62
2019-03-15T02:22:41.575Z,89.49
2019-03-15T02:25:13.514Z,89.21
2019-03-15T02:27:45.337Z,88.99
2019-03-15T02:30:17.172Z,89.60
2019-03-15T02:32:49.047Z,88.96
2019-03-15T02:35:20.915Z,88.97
2019-03-15T02:37:52.789Z,89.44
2019-03-15T02:40:24.595Z,89.22
2019-03-15T02:42:56.449Z,89.57
2019-03-15T02:45:28.322Z,89.11
2019-03-15T02:48:00.247Z,88.90
2019-03-15T02:50:32.133Z,89.01
2019-03-15T02:53:03.979Z,89.44
2019-03-15T02:55:35.806Z,89.66
2019-03-15T02:58:07.668Z,89.47
2019-03-15T03:00:41.026Z,89.04
2019-03-15T03:03:13.195Z,88.84
2019-03-15T03:05:45.198Z,88.88
2019-03-15T03:08:17.061Z,88.42
2019-03-15T03:10:49.435Z,86.87
2019-03-15T03:13:21.399Z,86.87
2019-03-15T03:15:53.294Z,87.58
2019-03-15T03:18:25.159Z,86.30
2019-03-15T03:20:57.019Z,85.32
2019-03-15T03:23:28.939Z,85.46
2019-03-15T03:26:00.807Z,84.97
2019-03-15T03:28:32.686Z,84.06
2019-03-15T03:31:04.701Z,83.58
2019-03-15T03:33:36.818Z,82.81
2019-03-15T03:36:08.713Z,83.26
2019-03-15T03:38:40.658Z,83.05
2019-03-15T03:41:12.472Z,82.47
2019-03-15T03:43:44.463Z,82.11
2019-03-15T03:46:16.329Z,81.75
2019-03-15T03:48:49.405Z,81.73
2019-03-15T03:51:21.282Z,82.42
2019-03-15T03:53:53.384Z,81.79
2019-03-15T03:56:25.297Z,80.09
2019-03-15T03:58:57.153Z,79.60
2019-03-15T04:01:28.945Z,79.85
2019-03-15T04:04:00.847Z,79.82
2019-03-15T04:06:32.757Z,79.09
2019-03-15T04:09:04.753Z,78.45
2019-03-15T04:11:36.593Z,77.97
2019-03-15T04:14:08.381Z,78.45
2019-03-15T04:16:40.223Z,78.58
2019-03-15T04:19:12.068Z,78.36
2019-03-15T04:21:43.840Z,78.51
2019-03-15T04:24:15.689Z,77.97
2019-03-15T04:26:47.604Z,76.83
2019-03-15T04:29:23.273Z,77.38
2019-03-15T04:31:55.052Z,78.03
2019-03-15T04:34:28.419Z,77.21
2019-03-15T04:37:00.494Z,76.42
2019-03-15T04:39:32.347Z,75.77
2019-03-15T04:42:04.175Z,75.42
2019-03-15T04:44:35.943Z,75.58
2019-03-15T04:47:07.860Z,75.15
2019-03-15T04:49:39.694Z,74.57
2019-03-15T04:52:12.648Z,74.62
2019-03-15T04:54:44.496Z,75.48
2019-03-15T04:57:16.328Z,75.11
2019-03-15T04:59:48.256Z,73.65
2019-03-15T05:02:21.401Z,74.38
2019-03-15T05:04:54.361Z,74.24
2019-03-15T05:07:26.288Z,73.88
2019-03-15T05:09:58.143Z,73.86
2019-03-15T05:12:29.961Z,74.51
2019-03-15T05:15:01.889Z,73.76
2019-03-15T05:17:33.774Z,74.01
2019-03-15T05:20:06.374Z,73.56
2019-03-15T05:22:38.198Z,73.58
2019-03-15T05:25:12.343Z,73.00
2019-03-15T05:27:44.267Z,72.89
2019-03-15T05:30:16.152Z,71.90
2019-03-15T05:32:47.962Z,71.07
2019-03-15T05:35:19.778Z,71.19
2019-03-15T05:37:51.698Z,70.25
2019-03-15T05:40:23.507Z,69.85
2019-03-15T05:42:55.390Z,70.20
2019-03-15T05:45:27.271Z,70.00
2019-03-15T05:47:59.074Z,70.14
2019-03-15T05:50:30.890Z,69.30
2019-03-15T05:53:02.883Z,69.23
2019-03-15T05:55:34.685Z,69.41
2019-03-15T05:58:06.620Z,69.06
2019-03-15T06:00:38.491Z,69.58
2019-03-15T06:03:12.654Z,70.02
2019-03-15T06:05:44.764Z,69.50
2019-03-15T06:08:16.588Z,69.29
2019-03-15T06:10:48.486Z,69.70
2019-03-15T06:13:20.259Z,69.94
2019-03-15T06:15:52.030Z,70.00
2019-03-15T06:18:24.917Z,68.60
2019-03-15T06:20:56.763Z,69.11
2019-03-15T06:23:28.762Z,69.49
2019-03-15T06:26:00.647Z,70.28
2019-03-15T06:28:32.520Z,70.23
2019-03-15T06:31:04.406Z,70.89
2019-03-15T06:33:36.239Z,69.83
2019-03-15T06:36:08.093Z,68.91
2019-03-15T06:38:39.965Z,68.44
2019-03-15T06:41:14.348Z,67.48
2019-03-15T06:43:45.407Z,67.31
2019-03-15T06:46:17.327Z,66.79
2019-03-15T06:48:49.434Z,66.78
2019-03-15T06:51:21.321Z,65.98
2019-03-15T06:53:53.244Z,66.28
2019-03-15T06:56:25.135Z,65.67
2019-03-15T06:58:57.004Z,65.74
2019-03-15T07:01:28.863Z,65.54
2019-03-15T07:04:00.817Z,65.34
2019-03-15T07:06:33.091Z,65.47
2019-03-15T07:09:07.415Z,65.52
2019-03-15T07:11:39.731Z,65.04
2019-03-15T07:14:11.799Z,64.96
2019-03-15T07:16:43.839Z,65.19
2019-03-15T07:19:25.587Z,65.92
2019-03-15T07:21:49.768Z,66.64
2019-03-15T07:24:25.430Z,67.02
2019-03-15T07:26:55.723Z,66.04
2019-03-15T07:29:27.813Z,66.34
2019-03-15T07:31:59.843Z,66.78
2019-03-15T07:34:31.921Z,66.88
2019-03-15T07:37:03.867Z,67.18
2019-03-15T07:39:35.926Z,65.80
2019-03-15T07:42:07.925Z,65.44
2019-03-15T07:44:39.821Z,65.60
2019-03-15T07:47:11.819Z,66.14
2019-03-15T07:49:44.006Z,65.44
2019-03-15T07:52:16.137Z,66.23
2019-03-15T07:54:48.075Z,66.09
2019-03-15T07:57:19.951Z,66.45
2019-03-15T07:59:52.158Z,66.85
2019-03-15T08:02:28.205Z,66.49
2019-03-15T08:05:00.392Z,66.40
2019-03-15T08:07:37.795Z,65.54
2019-03-15T08:10:08.480Z,65.57
2019-03-15T08:12:42.315Z,66.13
2019-03-15T08:15:14.721Z,65.05
2019-03-15T08:17:47.087Z,64.09
2019-03-15T08:20:19.157Z,63.96
2019-03-15T08:22:52.396Z,63.67
2019-03-15T08:25:24.414Z,64.85
2019-03-15T08:27:58.540Z,64.45
2019-03-15T08:30:30.487Z,63.90
2019-03-15T08:33:10.017Z,62.96
2019-03-15T08:35:36.048Z,62.56
2019-03-15T08:38:08.070Z,61.76
2019-03-15T08:40:40.005Z,61.45
2019-03-15T08:43:11.894Z,60.84
2019-03-15T08:45:43.878Z,60.91
2019-03-15T08:48:17.773Z,61.08
2019-03-15T08:50:49.704Z,60.88
2019-03-15T08:53:21.506Z,60.73
2019-03-15T08:55:53.706Z,60.79
2019-03-15T08:58:25.786Z,59.65
2019-03-15T09:00:57.814Z,59.67
2019-03-15T09:03:34.573Z,58.53
2019-03-15T09:06:10.377Z,58.60
2019-03-15T09:08:46.470Z,58.17
2019-03-15T09:11:18.518Z,58.01
2019-03-15T09:13:50.534Z,58.64
2019-03-15T09:16:22.652Z,59.50
2019-03-15T09:18:59.712Z,58.51
2019-03-15T09:21:34.769Z,58.81
2019-03-15T09:24:10.532Z,59.04
2019-03-15T09:26:45.357Z,58.09
2019-03-15T09:29:17.298Z,57.08
2019-03-15T09:32:05.460Z,56.54
2019-03-15T09:34:31.830Z,54.86
2019-03-15T09:37:04.202Z,55.61
2019-03-15T09:39:39.338Z,55.16
2019-03-15T09:42:13.950Z,55.30
2019-03-15T09:44:48.336Z,56.00
2019-03-15T09:47:25.324Z,55.11
2019-03-15T09:50:00.904Z,54.97
2019-03-15T09:52:43.914Z,55.94
2019-03-15T09:55:16.988Z,55.67
2019-03-15T09:57:53.248Z,54.59
2019-03-15T10:00:27.819Z,54.82
2019-03-15T10:03:02.822Z,54.92
2019-03-15T10:05:37.366Z,56.00
2019-03-15T10:08:23.506Z,55.60
2019-03-15T10:10:57.265Z,56.34
2019-03-15T10:13:36.757Z,55.26
2019-03-15T10:16:15.130Z,54.83
2019-03-15T10:18:52.482Z,53.84
2019-03-15T10:21:29.081Z,53.76
2019-03-15T10:24:02.108Z,53.32
2019-03-15T10:26:35.952Z,52.14
2019-03-15T10:29:15.612Z,51.95
2019-03-15T10:31:44.596Z,52.63
2019-03-15T10:34:25.440Z,53.25
2019-03-15T10:36:57.478Z,54.46
2019-03-15T10:39:29.386Z,54.47
2019-03-15T10:42:01.297Z,54.66
2019-03-15T10:44:36.185Z,54.79
2019-03-15T10:47:14.046Z,55.50
2019-03-15T10:49:57.182Z,55.17
2019-03-15T10:52:29.206Z,56.33
2019-03-15T10:55:01.034Z,56.48
2019-03-15T10:57:32.992Z,55.19
2019-03-15T11:00:08.570Z,53.79
2019-03-15T11:02:43.446Z,52.25
2019-03-15T11:05:19.769Z,52.10
2019-03-15T11:07:51.649Z,53.16
2019-03-15T11:10:23.832Z,52.62
2019-03-15T11:13:09.572Z,51.51
2019-03-15T11:15:54.279Z,50.76
2019-03-15T11:18:31.012Z,50.71
2019-03-15T11:21:07.960Z,48.96
2019-03-15T11:23:41.023Z,49.18
2019-03-15T11:26:17.169Z,50.31
2019-03-15T11:28:50.678Z,48.36
2019-03-15T11:31:22.567Z,47.90
2019-03-15T11:33:56.178Z,48.74
2019-03-15T11:36:29.665Z,49.27
2019-03-15T11:39:01.751Z,48.32
2019-03-15T11:41:36.487Z,47.34
2019-03-15T11:44:09.859Z,46.83
2019-03-15T11:46:41.747Z,46.92
2019-03-15T11:49:15.990Z,47.80
2019-03-15T11:51:52.262Z,48.20
2019-03-15T11:54:23.833Z,47.24
2019-03-15T11:56:55.645Z,47.24
2019-03-15T11:59:27.489Z,47.49
2019-03-15T12:02:04.219Z,48.20
2019-03-15T12:04:35.428Z,48.52
2019-03-15T12:07:10.645Z,47.76
2019-03-15T12:09:46.403Z,47.77
2019-03-15T12:12:24.258Z,49.01
2019-03-15T12:14:56.110Z,51.14
2019-03-15T12:17:29.585Z,50.85
2019-03-15T12:26:14.739Z,51.97
2019-03-15T12:28:46.858Z,49.76
2019-03-15T12:31:18.884Z,48.12
2019-03-15T12:33:52.816Z,49.43
2019-03-15T12:36:24.733Z,47.69
2019-03-15T12:38:59.409Z,46.30
2019-03-15T12:41:38.527Z,46.80
2019-03-15T12:44:13.654Z,47.74
2019-03-15T12:46:44.143Z,49.08
2019-03-15T12:49:25.486Z,50.06
2019-03-15T12:52:09.009Z,49.28
2019-03-15T12:54:52.980Z,49.55
2019-03-15T12:57:32.317Z,52.37
2019-03-15T13:00:09.817Z,53.81
2019-03-15T13:02:47.177Z,53.19
2019-03-15T13:05:25.024Z,51.39
2019-03-15T13:08:03.299Z,51.09
2019-03-15T13:10:41.433Z,53.31
2019-03-15T13:13:13.362Z,56.16
2019-03-15T13:16:54.537Z,58.92
2019-03-15T13:19:54.528Z,59.36
2019-03-15T13:22:41.881Z,57.27
2019-03-15T13:25:18.141Z,56.54
2019-03-15T13:46:27.513Z,57.68
2019-03-15T13:49:03.288Z,58.80
2019-03-15T13:51:35.381Z,59.02
2019-03-15T13:54:07.609Z,58.40
2019-03-15T13:56:42.054Z,58.25
2019-03-15T13:59:44.215Z,58.05
2019-03-15T14:02:17.278Z,59.51
2019-03-15T14:05:08.389Z,61.18
2019-03-15T14:07:56.230Z,62.17
2019-03-15T14:10:34.222Z,62.44
2019-03-15T14:16:57.535Z,65.18
2019-03-15T14:19:34.201Z,64.50
2019-03-15T14:22:12.116Z,66.87
2019-03-15T14:28:00.395Z,66.72
2019-03-15T14:30:38.766Z,67.68
2019-03-15T14:33:14.185Z,68.43
2019-03-15T14:35:49.076Z,69.48
2019-03-15T14:38:23.406Z,70.71
2019-03-15T14:40:54.865Z,71.51
2019-03-15T14:43:28.198Z,72.09
2019-03-15T14:46:00.294Z,73.52
2019-03-15T14:48:33.933Z,74.85
2019-03-15T14:51:06.438Z,76.33
2019-03-15T14:53:38.650Z,77.02
2019-03-15T14:56:13.875Z,77.88
2019-03-15T14:58:45.880Z,78.65
2019-03-15T15:01:18.364Z,80.03
2019-03-15T15:03:50.312Z,80.09
2019-03-15T15:06:24.349Z,81.56
2019-03-15T15:08:56.690Z,81.96
2019-03-15T15:11:41.524Z,83.05
2019-03-15T15:14:15.946Z,83.36
2019-03-15T15:16:48.415Z,83.34
2019-03-15T15:19:25.796Z,85.26
2019-03-15T15:21:57.768Z,87.41
2019-03-15T15:24:35.097Z,88.31
2019-03-15T15:27:09.594Z,88.98
2019-03-15T15:29:42.447Z,89.63
2019-03-15T15:32:26.111Z,90.50
2019-03-15T15:35:05.824Z,90.68
2019-03-15T15:37:37.698Z,90.80
2019-03-15T15:40:15.419Z,90.75
2019-03-15T15:42:54.502Z,90.67
2019-03-15T15:45:32.426Z,91.21
2019-03-15T15:48:06.251Z,92.45
2019-03-15T15:50:45.415Z,93.21
2019-03-15T15:53:20.558Z,94.27
2019-03-15T15:55:57.401Z,94.72
2019-03-15T15:58:31.252Z,94.89
2019-03-15T16:01:11.028Z,94.74
2019-03-15T16:03:45.848Z,94.18
2019-03-15T16:06:18.013Z,94.48
2019-03-15T16:08:50.045Z,94.11
2019-03-15T16:11:21.952Z,93.58
2019-03-15T16:13:53.982Z,92.71
2019-03-15T16:16:27.487Z,92.81
2019-03-15T16:19:01.017Z,92.04
2019-03-15T16:21:32.988Z,91.19
2019-03-15T16:24:05.140Z,91.13
2019-03-15T16:26:37.408Z,91.17
2019-03-15T16:29:09.531Z,91.71
2019-03-15T16:31:41.708Z,91.92
2019-03-15T16:34:13.865Z,92.11
2019-03-15T16:36:45.899Z,91.78
2019-03-15T16:39:17.872Z,91.95
2019-03-15T16:41:50.633Z,91.83
2019-03-15T16:44:22.582Z,91.50
2019-03-15T16:46:54.507Z,91.38
2019-03-15T16:49:26.432Z,91.37
2019-03-15T16:51:58.434Z,91.51
2019-03-15T16:54:30.342Z,91.76
2019-03-15T16:57:02.375Z,91.91
2019-03-15T16:59:34.265Z,92.41
2019-03-15T17:02:06.381Z,92.54
2019-03-15T17:04:38.342Z,92.91
2019-03-15T17:07:10.323Z,92.77
2019-03-15T17:09:44.454Z,92.75
2019-03-15T17:12:17.258Z,93.30
2019-03-15T17:14:49.220Z,93.48
2019-03-15T17:17:45.621Z,93.62
2019-03-15T17:20:21.292Z,93.05
2019-03-15T17:22:55.179Z,92.83
2019-03-15T17:25:33.582Z,92.30
2019-03-15T17:28:15.230Z,91.71
2019-03-15T17:31:09.110Z,91.32
2019-03-15T17:33:32.053Z,90.89
2019-03-15T17:36:03.912Z,90.40
2019-03-15T17:38:35.967Z,89.91
2019-03-15T17:41:08.053Z,89.22
2019-03-15T17:43:39.973Z,88.82
2019-03-15T17:46:13.156Z,88.35
2019-03-15T17:48:47.860Z,87.90
2019-03-15T17:51:20.905Z,87.43
2019-03-15T17:54:00.018Z,87.39
2019-03-15T17:56:32.024Z,87.57
2019-03-15T17:59:12.462Z,88.26
2019-03-15T18:01:39.602Z,88.17
2019-03-15T18:04:11.849Z,88.08
2019-03-15T18:06:44.275Z,87.32
2019-03-15T18:09:19.322Z,87.04
2019-03-15T18:11:56.897Z,86.68
2019-03-15T18:23:02.669Z,84.26
2019-03-15T18:25:34.888Z,83.53
2019-03-15T18:28:08.534Z,83.38
2019-03-15T18:30:40.581Z,82.66
2019-03-15T18:33:12.752Z,80.92
2019-03-15T18:35:49.430Z,80.80
2019-03-15T18:38:23.281Z,83.22
2019-03-15T18:40:59.099Z,84.50
2019-03-15T18:43:34.869Z,84.08
2019-03-15T18:54:33.345Z,79.99
2019-03-15T18:57:09.617Z,78.71
2019-03-15T18:59:52.667Z,77.53
2019-03-15T19:02:21.873Z,78.47
2019-03-15T19:05:14.786Z,78.97
2019-03-15T19:07:52.283Z,77.17
2019-03-15T19:10:26.594Z,76.69
2019-03-15T19:13:13.263Z,76.34
2019-03-15T19:48:56.848Z,71.40
2019-03-15T19:51:32.038Z,70.84
2019-03-15T19:54:08.284Z,70.96
2019-03-15T19:56:42.325Z,70.69
2019-03-15T19:59:14.858Z,70.71
2019-03-15T20:01:47.876Z,70.37
2019-03-15T20:04:21.746Z,70.38
2019-03-15T20:06:54.347Z,70.23
2019-03-15T20:09:29.499Z,70.09
2019-03-15T20:12:01.696Z,70.11
2019-03-15T20:14:35.336Z,69.88
2019-03-15T20:17:14.413Z,70.36
2019-03-15T20:19:46.790Z,71.17
2019-03-15T20:22:26.386Z,71.17
2019-03-15T20:24:57.243Z,70.05
2019-03-15T20:27:31.153Z,69.43
2019-03-15T20:30:03.892Z,68.95
2019-03-15T20:32:38.881Z,68.14
2019-03-15T20:35:14.632Z,67.87
2019-03-15T20:37:46.905Z,67.53
2019-03-15T20:40:19.060Z,69.09
2019-03-15T20:42:51.204Z,69.90
2019-03-15T20:45:26.657Z,70.88
2019-03-15T20:47:58.944Z,71.31
2019-03-15T20:50:45.886Z,68.92
2019-03-15T20:53:12.696Z,70.00
2019-03-15T20:55:42.788Z,70.37
2019-03-15T20:58:15.180Z,70.76
2019-03-15T21:00:47.392Z,71.31
2019-03-15T21:03:20.098Z,72.12
2019-03-15T21:05:52.308Z,71.82
2019-03-15T21:08:24.692Z,70.90
2019-03-15T21:10:56.919Z,71.02
2019-03-15T21:13:33.892Z,71.04
2019-03-15T21:16:05.330Z,70.67
2019-03-15T21:18:39.206Z,69.21
2019-03-15T21:21:13.000Z,68.97
2019-03-15T21:23:47.313Z,67.32
2019-03-15T21:26:19.179Z,65.91
2019-03-15T21:28:56.526Z,64.37
2019-03-15T21:31:29.724Z,62.81
2019-03-15T21:34:02.144Z,61.41
2019-03-15T21:36:34.768Z,61.32
2019-03-15T21:39:13.265Z,61.16
2019-03-15T21:45:09.956Z,58.98
2019-03-15T21:49:30.267Z,59.11
2019-03-15T21:50:34.744Z,59.84
2019-03-15T21:54:10.993Z,60.91
2019-03-15T21:56:23.619Z,61.96
2019-03-15T21:58:58.172Z,62.67
2019-03-15T22:01:32.403Z,63.68
2019-03-15T22:04:06.569Z,64.88
2019-03-15T22:06:56.150Z,65.31
2019-03-15T22:09:28.619Z,66.37
2019-03-15T22:12:01.464Z,66.93
2019-03-15T22:14:37.360Z,64.13
2019-03-15T22:17:17.668Z,64.51
2019-03-15T22:20:01.065Z,60.43
2019-03-15T22:22:35.153Z,58.08
2019-03-15T22:25:07.970Z,58.71
2019-03-15T22:27:57.505Z,58.39
2019-03-15T22:30:31.137Z,58.24
2019-03-15T22:33:03.292Z,59.01
2019-03-15T22:35:36.487Z,57.45
2019-03-15T22:38:08.539Z,57.79
2019-03-15T22:40:40.746Z,58.57
2019-03-15T22:43:13.195Z,59.50
2019-03-15T22:45:45.380Z,60.10
2019-03-15T22:48:17.373Z,60.35
2019-03-15T22:50:49.400Z,61.15
2019-03-15T22:53:21.552Z,61.46
2019-03-15T22:55:53.508Z,61.12
2019-03-15T22:58:25.621Z,61.46
2019-03-15T23:00:57.729Z,61.08
2019-03-15T23:03:31.251Z,60.08
2019-03-15T23:06:03.297Z,59.16
2019-03-15T23:08:35.385Z,58.15
2019-03-15T23:11:07.376Z,57.16
2019-03-15T23:13:39.872Z,57.02
2019-03-15T23:16:12.072Z,56.87
2019-03-15T23:18:45.469Z,56.96
2019-03-15T23:21:17.686Z,57.62
2019-03-15T23:23:49.816Z,58.38
2019-03-15T23:26:21.763Z,58.27
2019-03-15T23:28:53.769Z,58.43
2019-03-15T23:31:25.891Z,58.25
2019-03-15T23:33:57.828Z,58.81
2019-03-15T23:36:29.869Z,57.94
2019-03-15T23:39:01.942Z,57.20
2019-03-15T23:41:34.423Z,57.15
2019-03-15T23:44:06.445Z,57.02
2019-03-15T23:46:38.517Z,57.20
2019-03-15T23:49:10.459Z,57.64
2019-03-15T23:51:42.554Z,57.71
2019-03-15T23:54:14.583Z,58.44
2019-03-15T23:56:46.580Z,58.61
2019-03-15T23:59:18.470Z,58.48
